Mabton, Washington
Current Conditions -  °F | °C
As of 4:53 PM on Wednesday 26 Nov 2014 (Local Time) from KYKM Reporting Station
Clear Clear  
Wind Chill: 38°   Ceiling: Unl
Heat Index: 41°   Visibility: 9mi
Dew Point: 38°   Wind: 5mph
Humidity: 89%   Direction: 270°W
Pressure: 30.05"   Gusts: NA
Location:  46.21°N, 120°W
Report Text: KYKM 270053Z 27004KT 9SM CLR 05/03 A3005 RMK AO2 SLP183 T00500033
Loading
Personal Weather Stations






























Interactive Weather Map New forecast layout! Learn more

10-Day Weather Forecast

Advertisements
Track Severe Weather on mobile